FDX27 KSAN-KLAS
Flight info
| Callsign | FDX27 |
|---|---|
| Flight time | 0h 49m |
| Altitude | 29000 |
| Route | PADRZ2 CHKNN SEBBY YELAH MISEN RNDRZ4 |
| Aircraft | B77L/H-SDE1E2E3FGHIJ2J3J4J5M1RWXY/LB1D1 |
Departure
| Time | 2026-05-04 04:04 |
|---|---|
| Airport | San Diego International Airport (KSAN) |
Arrival
| Time | 2026-05-04 04:53 |
|---|---|
| Airport | Harry Reid International Airport (KLAS) |
| Time | Latitude | Longitude | Altitude | Speed | Heading |
|---|---|---|---|---|---|
| 2026-05-04 03:47 | 32.73731 | -117.18568 | 30 ft | 0 kts | 355° |
| 2026-05-04 03:55 | 32.73718 | -117.18569 | 29 ft | 2 kts | 25° |
| 2026-05-04 03:55 | 32.73707 | -117.18580 | 29 ft | 2 kts | 58° |
| 2026-05-04 03:55 | 32.73702 | -117.18597 | 29 ft | 2 kts | 90° |
| 2026-05-04 03:55 | 32.73705 | -117.18615 | 29 ft | 2 kts | 124° |
| 2026-05-04 03:56 | 32.73716 | -117.18627 | 29 ft | 2 kts | 149° |
| 2026-05-04 03:56 | 32.73723 | -117.18632 | 29 ft | 0 kts | 149° |
| 2026-05-04 03:58 | 32.73702 | -117.18617 | 29 ft | 0 kts | 148° |
| 2026-05-04 03:58 | 32.73697 | -117.18613 | 29 ft | 1 kts | 148° |
| 2026-05-04 03:58 | 32.73686 | -117.18605 | 29 ft | 2 kts | 148° |
| 2026-05-04 03:59 | 32.73683 | -117.18603 | 29 ft | 0 kts | 148° |
| 2026-05-04 04:00 | 32.73662 | -117.18585 | 29 ft | 11 kts | 143° |
| 2026-05-04 04:00 | 32.73584 | -117.18512 | 29 ft | 14 kts | 143° |
| 2026-05-04 04:00 | 32.73501 | -117.18445 | 29 ft | 14 kts | 146° |
| 2026-05-04 04:00 | 32.73436 | -117.18400 | 29 ft | 9 kts | 162° |
| 2026-05-04 04:01 | 32.73378 | -117.18404 | 29 ft | 6 kts | 194° |
| 2026-05-04 04:01 | 32.73336 | -117.18395 | 29 ft | 6 kts | 139° |
| 2026-05-04 04:01 | 32.73317 | -117.18340 | 29 ft | 10 kts | 106° |
| 2026-05-04 04:01 | 32.73292 | -117.18237 | 28 ft | 13 kts | 106° |
| 2026-05-04 04:02 | 32.73264 | -117.18119 | 29 ft | 17 kts | 105° |
| 2026-05-04 04:02 | 32.73224 | -117.17951 | 29 ft | 23 kts | 106° |
| 2026-05-04 04:02 | 32.73179 | -117.17767 | 31 ft | 22 kts | 107° |
| 2026-05-04 04:02 | 32.73144 | -117.17630 | 33 ft | 13 kts | 108° |
| 2026-05-04 04:03 | 32.73078 | -117.17550 | 33 ft | 15 kts | 160° |
| 2026-05-04 04:03 | 32.73028 | -117.17605 | 33 ft | 14 kts | 279° |
| 2026-05-04 04:03 | 32.73035 | -117.17643 | 33 ft | 2 kts | 286° |
| 2026-05-04 04:03 | 32.73097 | -117.17898 | 29 ft | 72 kts | 286° |
| 2026-05-04 04:04 | 32.73305 | -117.18765 | 29 ft | 143 kts | 286° |
| 2026-05-04 04:04 | 32.73616 | -117.20063 | 395 ft | 171 kts | 284° |
| 2026-05-04 04:04 | 32.74040 | -117.21353 | 1238 ft | 170 kts | 303° |
| 2026-05-04 04:04 | 32.74726 | -117.22507 | 1820 ft | 180 kts | 303° |
| 2026-05-04 04:05 | 32.75442 | -117.23763 | 2414 ft | 190 kts | 303° |
| 2026-05-04 04:05 | 32.76225 | -117.25127 | 2924 ft | 209 kts | 303° |
| 2026-05-04 04:05 | 32.77065 | -117.26610 | 3517 ft | 226 kts | 303° |
| 2026-05-04 04:05 | 32.77957 | -117.28224 | 4099 ft | 243 kts | 302° |
| 2026-05-04 04:06 | 32.78913 | -117.29974 | 4669 ft | 262 kts | 302° |
| 2026-05-04 04:06 | 32.79900 | -117.31780 | 5666 ft | 261 kts | 302° |
| 2026-05-04 04:06 | 32.80956 | -117.33492 | 6628 ft | 262 kts | 305° |
| 2026-05-04 04:06 | 32.82080 | -117.35174 | 7542 ft | 263 kts | 306° |
| 2026-05-04 04:07 | 32.83219 | -117.36895 | 8226 ft | 271 kts | 303° |
| 2026-05-04 04:07 | 32.84387 | -117.38703 | 8945 ft | 277 kts | 303° |
| 2026-05-04 04:07 | 32.85555 | -117.40513 | 9775 ft | 279 kts | 302° |
| 2026-05-04 04:07 | 32.86737 | -117.42350 | 10469 ft | 286 kts | 302° |
| 2026-05-04 04:08 | 32.87975 | -117.44280 | 10891 ft | 304 kts | 302° |
| 2026-05-04 04:08 | 32.89294 | -117.46333 | 11337 ft | 322 kts | 303° |
| 2026-05-04 04:08 | 32.90683 | -117.48489 | 12110 ft | 330 kts | 302° |
| 2026-05-04 04:08 | 32.92069 | -117.50639 | 13135 ft | 330 kts | 302° |
| 2026-05-04 04:09 | 32.93459 | -117.52800 | 14155 ft | 332 kts | 301° |
| 2026-05-04 04:09 | 32.94868 | -117.54997 | 14796 ft | 337 kts | 301° |
| 2026-05-04 04:09 | 32.96302 | -117.57234 | 14956 ft | 340 kts | 301° |
| 2026-05-04 04:09 | 32.97733 | -117.59463 | 14963 ft | 339 kts | 301° |
| 2026-05-04 04:10 | 32.99161 | -117.61691 | 14958 ft | 339 kts | 301° |
| 2026-05-04 04:10 | 33.00604 | -117.63948 | 15018 ft | 352 kts | 301° |
| 2026-05-04 04:10 | 33.02108 | -117.66301 | 15990 ft | 359 kts | 301° |
| 2026-05-04 04:10 | 33.03626 | -117.68664 | 17531 ft | 347 kts | 300° |
| 2026-05-04 04:11 | 33.05083 | -117.70939 | 18816 ft | 342 kts | 298° |
| 2026-05-04 04:11 | 33.06626 | -117.73133 | 19765 ft | 353 kts | 305° |
| 2026-05-04 04:11 | 33.08463 | -117.75113 | 20736 ft | 361 kts | 309° |
| 2026-05-04 04:11 | 33.10388 | -117.77064 | 21565 ft | 368 kts | 309° |
| 2026-05-04 04:12 | 33.12354 | -117.79057 | 22304 ft | 376 kts | 309° |
| 2026-05-04 04:12 | 33.14352 | -117.81084 | 23167 ft | 379 kts | 308° |
| 2026-05-04 04:12 | 33.16358 | -117.83121 | 24042 ft | 381 kts | 308° |
| 2026-05-04 04:12 | 33.18372 | -117.85170 | 24879 ft | 384 kts | 308° |
| 2026-05-04 04:13 | 33.20413 | -117.87235 | 25680 ft | 389 kts | 308° |
| 2026-05-04 04:13 | 33.22510 | -117.89275 | 26549 ft | 392 kts | 309° |
| 2026-05-04 04:13 | 33.24618 | -117.91320 | 27420 ft | 393 kts | 308° |
| 2026-05-04 04:13 | 33.26736 | -117.93380 | 28279 ft | 395 kts | 308° |
| 2026-05-04 04:14 | 33.28862 | -117.95449 | 28851 ft | 395 kts | 307° |
| 2026-05-04 04:14 | 33.30990 | -117.97525 | 28986 ft | 397 kts | 307° |
| 2026-05-04 04:14 | 33.35246 | -118.01680 | 28988 ft | 392 kts | 308° |
| 2026-05-04 04:15 | 33.39455 | -118.05796 | 28995 ft | 390 kts | 308° |
| 2026-05-04 04:15 | 33.43653 | -118.09915 | 28994 ft | 392 kts | 307° |
| 2026-05-04 04:16 | 33.47861 | -118.14047 | 28992 ft | 392 kts | 308° |
| 2026-05-04 04:16 | 33.52526 | -118.17648 | 28988 ft | 407 kts | 322° |
| 2026-05-04 04:17 | 33.55259 | -118.18814 | 28998 ft | 425 kts | 330° |
| 2026-05-04 04:17 | 33.58309 | -118.19509 | 29002 ft | 454 kts | 340° |
| 2026-05-04 04:17 | 33.61493 | -118.19580 | 28977 ft | 461 kts | 352° |
| 2026-05-04 04:17 | 33.64693 | -118.18953 | 28992 ft | 476 kts | 3° |
| 2026-05-04 04:18 | 33.67919 | -118.17591 | 28986 ft | 508 kts | 15° |
| 2026-05-04 04:18 | 33.71036 | -118.15420 | 28979 ft | 522 kts | 28° |
| 2026-05-04 04:18 | 33.73760 | -118.12535 | 28978 ft | 520 kts | 41° |
| 2026-05-04 04:18 | 33.76275 | -118.09327 | 28996 ft | 535 kts | 42° |
| 2026-05-04 04:19 | 33.81326 | -118.02761 | 28997 ft | 534 kts | 41° |
| 2026-05-04 04:19 | 33.86354 | -117.96204 | 28993 ft | 532 kts | 42° |
| 2026-05-04 04:20 | 33.91377 | -117.89643 | 28997 ft | 532 kts | 42° |
| 2026-05-04 04:20 | 33.96397 | -117.83074 | 29008 ft | 534 kts | 41° |
| 2026-05-04 04:21 | 34.01409 | -117.76502 | 29004 ft | 531 kts | 42° |
| 2026-05-04 04:21 | 34.06394 | -117.69953 | 29024 ft | 531 kts | 42° |
| 2026-05-04 04:22 | 34.11414 | -117.63348 | 29004 ft | 532 kts | 42° |
| 2026-05-04 04:22 | 34.16395 | -117.56778 | 29006 ft | 527 kts | 42° |
| 2026-05-04 04:23 | 34.21428 | -117.50130 | 29013 ft | 528 kts | 42° |
| 2026-05-04 04:23 | 34.26484 | -117.43439 | 29018 ft | 532 kts | 42° |
| 2026-05-04 04:24 | 34.31633 | -117.36609 | 29007 ft | 528 kts | 42° |
| 2026-05-04 04:24 | 34.36763 | -117.29793 | 28956 ft | 529 kts | 43° |
| 2026-05-04 04:25 | 34.41890 | -117.22966 | 28957 ft | 525 kts | 44° |
| 2026-05-04 04:25 | 34.46859 | -117.16340 | 28946 ft | 529 kts | 43° |
| 2026-05-04 04:26 | 34.51821 | -117.09706 | 28947 ft | 528 kts | 43° |
| 2026-05-04 04:26 | 34.56742 | -117.03117 | 28938 ft | 525 kts | 43° |
| 2026-05-04 04:27 | 34.61708 | -116.96455 | 28942 ft | 528 kts | 44° |
| 2026-05-04 04:27 | 34.66628 | -116.89841 | 28955 ft | 525 kts | 43° |
| 2026-05-04 04:28 | 34.71523 | -116.83249 | 28936 ft | 524 kts | 43° |
| 2026-05-04 04:28 | 34.76406 | -116.76659 | 28934 ft | 523 kts | 43° |
| 2026-05-04 04:29 | 34.81273 | -116.70081 | 28919 ft | 522 kts | 44° |
| 2026-05-04 04:29 | 34.86228 | -116.63726 | 28450 ft | 506 kts | 35° |
| 2026-05-04 04:30 | 34.88983 | -116.60983 | 27940 ft | 502 kts | 32° |
| 2026-05-04 04:30 | 34.91710 | -116.58348 | 27433 ft | 500 kts | 32° |
| 2026-05-04 04:30 | 34.94432 | -116.55717 | 26930 ft | 497 kts | 32° |
| 2026-05-04 04:30 | 34.97142 | -116.53095 | 26426 ft | 495 kts | 33° |
| 2026-05-04 04:31 | 34.99833 | -116.50488 | 25916 ft | 492 kts | 33° |
| 2026-05-04 04:31 | 35.02518 | -116.47882 | 25416 ft | 490 kts | 33° |
| 2026-05-04 04:31 | 35.05177 | -116.45299 | 24902 ft | 487 kts | 33° |
| 2026-05-04 04:31 | 35.07827 | -116.42723 | 24373 ft | 485 kts | 34° |
| 2026-05-04 04:32 | 35.10412 | -116.40062 | 23827 ft | 486 kts | 40° |
| 2026-05-04 04:32 | 35.12797 | -116.37084 | 23291 ft | 484 kts | 43° |
| 2026-05-04 04:32 | 35.15113 | -116.34095 | 22764 ft | 481 kts | 44° |
| 2026-05-04 04:32 | 35.17421 | -116.31109 | 22232 ft | 478 kts | 44° |
| 2026-05-04 04:33 | 35.19718 | -116.28134 | 21709 ft | 474 kts | 44° |
| 2026-05-04 04:33 | 35.21976 | -116.25207 | 21204 ft | 470 kts | 45° |
| 2026-05-04 04:33 | 35.24192 | -116.22283 | 20705 ft | 466 kts | 46° |
| 2026-05-04 04:33 | 35.26344 | -116.19330 | 20203 ft | 462 kts | 46° |
| 2026-05-04 04:34 | 35.28465 | -116.16410 | 19708 ft | 457 kts | 47° |
| 2026-05-04 04:34 | 35.30574 | -116.13508 | 19216 ft | 452 kts | 46° |
| 2026-05-04 04:34 | 35.32651 | -116.10650 | 18726 ft | 447 kts | 47° |
| 2026-05-04 04:34 | 35.34690 | -116.07845 | 18488 ft | 435 kts | 47° |
| 2026-05-04 04:35 | 35.36670 | -116.05118 | 18329 ft | 421 kts | 47° |
| 2026-05-04 04:35 | 35.38591 | -116.02473 | 18197 ft | 408 kts | 47° |
| 2026-05-04 04:35 | 35.40459 | -115.99899 | 18093 ft | 402 kts | 47° |
| 2026-05-04 04:35 | 35.42323 | -115.97331 | 17914 ft | 403 kts | 47° |
| 2026-05-04 04:36 | 35.44186 | -115.94764 | 17702 ft | 401 kts | 48° |
| 2026-05-04 04:36 | 35.46043 | -115.92201 | 17511 ft | 398 kts | 47° |
| 2026-05-04 04:36 | 35.47995 | -115.89505 | 17287 ft | 395 kts | 48° |
| 2026-05-04 04:36 | 35.49886 | -115.86893 | 17074 ft | 391 kts | 49° |
| 2026-05-04 04:37 | 35.55589 | -115.79004 | 16443 ft | 380 kts | 49° |
| 2026-05-04 04:37 | 35.57413 | -115.76476 | 16239 ft | 369 kts | 49° |
| 2026-05-04 04:38 | 35.59187 | -115.74015 | 16058 ft | 358 kts | 49° |
| 2026-05-04 04:38 | 35.60912 | -115.71672 | 15869 ft | 349 kts | 48° |
| 2026-05-04 04:38 | 35.62623 | -115.69372 | 15687 ft | 344 kts | 48° |
| 2026-05-04 04:38 | 35.64319 | -115.67088 | 15512 ft | 343 kts | 49° |
| 2026-05-04 04:39 | 35.66004 | -115.64815 | 15338 ft | 341 kts | 49° |
| 2026-05-04 04:39 | 35.67701 | -115.62520 | 15148 ft | 339 kts | 49° |
| 2026-05-04 04:39 | 35.69355 | -115.60285 | 14979 ft | 338 kts | 50° |
| 2026-05-04 04:39 | 35.71018 | -115.58031 | 14792 ft | 337 kts | 49° |
| 2026-05-04 04:40 | 35.72737 | -115.55859 | 14608 ft | 336 kts | 40° |
| 2026-05-04 04:40 | 35.74729 | -115.54241 | 14452 ft | 334 kts | 32° |
| 2026-05-04 04:40 | 35.76795 | -115.52781 | 14278 ft | 334 kts | 31° |
| 2026-05-04 04:40 | 35.78845 | -115.51354 | 14111 ft | 333 kts | 30° |
| 2026-05-04 04:41 | 35.80894 | -115.49924 | 13944 ft | 331 kts | 32° |
| 2026-05-04 04:41 | 35.82914 | -115.48510 | 13770 ft | 331 kts | 31° |
| 2026-05-04 04:41 | 35.84910 | -115.47110 | 13587 ft | 329 kts | 31° |
| 2026-05-04 04:41 | 35.86921 | -115.45699 | 13416 ft | 328 kts | 32° |
| 2026-05-04 04:42 | 35.88909 | -115.44302 | 13244 ft | 326 kts | 31° |
| 2026-05-04 04:42 | 35.90901 | -115.42902 | 13070 ft | 327 kts | 32° |
| 2026-05-04 04:42 | 35.92952 | -115.41469 | 12712 ft | 329 kts | 32° |
| 2026-05-04 04:42 | 35.94951 | -115.40076 | 12285 ft | 329 kts | 32° |
| 2026-05-04 04:43 | 35.96971 | -115.38668 | 11878 ft | 327 kts | 32° |
| 2026-05-04 04:43 | 35.98927 | -115.37226 | 11499 ft | 323 kts | 40° |
| 2026-05-04 04:43 | 36.00397 | -115.35189 | 11123 ft | 314 kts | 64° |
| 2026-05-04 04:43 | 36.01093 | -115.32626 | 10817 ft | 305 kts | 86° |
| 2026-05-04 04:44 | 36.01249 | -115.30032 | 10618 ft | 299 kts | 93° |
| 2026-05-04 04:44 | 36.01212 | -115.27484 | 10404 ft | 293 kts | 97° |
| 2026-05-04 04:44 | 36.01111 | -115.24974 | 10195 ft | 286 kts | 97° |
| 2026-05-04 04:44 | 36.00995 | -115.22547 | 10000 ft | 279 kts | 98° |
| 2026-05-04 04:45 | 36.00878 | -115.20173 | 9792 ft | 271 kts | 99° |
| 2026-05-04 04:45 | 36.00764 | -115.17882 | 9608 ft | 261 kts | 99° |
| 2026-05-04 04:45 | 36.00652 | -115.15651 | 9428 ft | 251 kts | 99° |
| 2026-05-04 04:47 | 36.00000 | -115.02902 | 8191 ft | 244 kts | 99° |
| 2026-05-04 04:47 | 35.99897 | -115.00825 | 8039 ft | 240 kts | 97° |
| 2026-05-04 04:47 | 35.99885 | -114.98717 | 8030 ft | 243 kts | 95° |
| 2026-05-04 04:47 | 35.99889 | -114.96561 | 8018 ft | 244 kts | 95° |
| 2026-05-04 04:48 | 35.99891 | -114.94431 | 8013 ft | 244 kts | 91° |
| 2026-05-04 04:49 | 36.04984 | -114.90374 | 6445 ft | 239 kts | 331° |
| 2026-05-04 04:49 | 36.06314 | -114.91422 | 6362 ft | 215 kts | 310° |
| 2026-05-04 04:49 | 36.07091 | -114.92895 | 6035 ft | 202 kts | 285° |
| 2026-05-04 04:49 | 36.07375 | -114.94527 | 5705 ft | 192 kts | 266° |
| 2026-05-04 04:50 | 36.07362 | -114.96195 | 5216 ft | 199 kts | 265° |
| 2026-05-04 04:50 | 36.07348 | -114.97938 | 4646 ft | 209 kts | 266° |
| 2026-05-04 04:50 | 36.07353 | -114.99759 | 4059 ft | 217 kts | 267° |
| 2026-05-04 04:50 | 36.07361 | -115.01533 | 3757 ft | 195 kts | 267° |
| 2026-05-04 04:51 | 36.07362 | -115.03142 | 3566 ft | 179 kts | 267° |
| 2026-05-04 04:51 | 36.07362 | -115.04627 | 3347 ft | 164 kts | 266° |
| 2026-05-04 04:51 | 36.07357 | -115.05942 | 3130 ft | 144 kts | 268° |
| 2026-05-04 04:51 | 36.07375 | -115.07162 | 2883 ft | 142 kts | 266° |
| 2026-05-04 04:52 | 36.07371 | -115.08385 | 2709 ft | 141 kts | 267° |
| 2026-05-04 04:52 | 36.07368 | -115.09596 | 2530 ft | 142 kts | 268° |
| 2026-05-04 04:52 | 36.07366 | -115.10839 | 2389 ft | 145 kts | 268° |
| 2026-05-04 04:52 | 36.07369 | -115.12090 | 2189 ft | 145 kts | 267° |
| 2026-05-04 04:53 | 36.07369 | -115.13308 | 2089 ft | 131 kts | 268° |
| 2026-05-04 04:53 | 36.07365 | -115.14277 | 2114 ft | 91 kts | 270° |
| 2026-05-04 04:53 | 36.07368 | -115.14693 | 2127 ft | 29 kts | 273° |
| 2026-05-04 04:53 | 36.07412 | -115.14919 | 2134 ft | 26 kts | 291° |
| 2026-05-04 04:54 | 36.07503 | -115.15093 | 2139 ft | 22 kts | 314° |
| 2026-05-04 04:54 | 36.07600 | -115.15177 | 2141 ft | 14 kts | 330° |
| 2026-05-04 04:54 | 36.07697 | -115.15235 | 2141 ft | 16 kts | 344° |
| 2026-05-04 04:54 | 36.07793 | -115.15230 | 2139 ft | 14 kts | 61° |
| 2026-05-04 04:55 | 36.07802 | -115.15078 | 2133 ft | 22 kts | 91° |
| 2026-05-04 04:55 | 36.07787 | -115.14860 | 2126 ft | 26 kts | 96° |
| 2026-05-04 04:55 | 36.07769 | -115.14627 | 2120 ft | 27 kts | 95° |
| 2026-05-04 04:55 | 36.07757 | -115.14380 | 2111 ft | 29 kts | 95° |
| 2026-05-04 04:56 | 36.07753 | -115.14128 | 2105 ft | 23 kts | 90° |
| 2026-05-04 04:56 | 36.07752 | -115.13916 | 2097 ft | 26 kts | 86° |
| 2026-05-04 04:56 | 36.07753 | -115.13686 | 2091 ft | 27 kts | 91° |
| 2026-05-04 04:56 | 36.07753 | -115.13498 | 2086 ft | 20 kts | 89° |
| 2026-05-04 04:57 | 36.07756 | -115.13312 | 2081 ft | 22 kts | 89° |
| 2026-05-04 04:57 | 36.07758 | -115.13107 | 2076 ft | 24 kts | 90° |
| 2026-05-04 04:57 | 36.07754 | -115.12896 | 2069 ft | 23 kts | 91° |
| 2026-05-04 04:57 | 36.07756 | -115.12707 | 2066 ft | 12 kts | 89° |
| 2026-05-04 04:58 | 36.07812 | -115.12634 | 2063 ft | 14 kts | 359° |
| 2026-05-04 04:58 | 36.07919 | -115.12637 | 2061 ft | 16 kts | 359° |